Time;durP1;ratioP1;P1;durP2;ratioP2;P2;SDS_P1;SDS_P2;PMS_P1;PMS_P2;Temp;Humidity;BMP_temperature;BMP_pressure;BME280_temperature;BME280_humidity;BME280_pressure;Samples;Min_cycle;Max_cycle;Signal;HPM_P1;HPM_P2
2022/02/23 00:00:25;;;;;;;1.60;1.10;;;5.30;1.40;;;5.62;100.00;95864.44;646723;212;31532;-79
2022/02/23 00:03:11;;;;;;;7.10;1.10;;;5.40;1.40;;;5.56;100.00;95842.81;646906;216;31501;-75
2022/02/23 00:05:52;;;;;;;0.50;0.50;;;5.30;1.40;;;5.54;100.00;95849.80;646624;212;31568;-75
2022/02/23 00:08:37;;;;;;;0.40;0.30;;;5.30;1.40;;;5.60;100.00;95852.22;632975;221;32299;-75
2022/02/23 00:11:19;;;;;;;1.40;0.50;;;5.40;1.40;;;5.59;100.00;95845.98;647707;212;31475;-75
2022/02/23 00:14:07;;;;;;;0.90;0.50;;;5.30;1.40;;;5.64;100.00;95842.12;647780;216;31607;-79
2022/02/23 00:16:54;;;;;;;0.40;0.40;;;5.40;1.40;;;5.58;100.00;95849.81;646966;212;31504;-76
2022/02/23 00:19:36;;;;;;;0.40;0.40;;;5.30;1.40;;;5.60;100.00;95840.01;646960;216;31499;-75
2022/02/23 00:22:24;;;;;;;0.50;0.30;;;5.30;1.40;;;5.59;100.00;95832.91;618969;222;31987;-80
2022/02/23 00:25:11;;;;;;;1.40;0.30;;;5.30;1.40;;;5.50;100.00;95853.23;647062;212;31532;-74
2022/02/23 00:27:53;;;;;;;0.40;0.30;;;5.20;1.40;;;5.43;100.00;95835.50;646512;216;31509;-75
2022/02/23 00:30:35;;;;;;;0.50;0.30;;;5.00;1.40;;;5.42;100.00;95839.27;646906;216;31528;-74
2022/02/23 00:38:25;;;;;;;0.43;0.35;;;5.10;1.40;;;5.32;100.00;95841.72;647141;216;31747;-73
2022/02/23 00:41:07;;;;;;;0.40;0.30;;;5.00;1.40;;;5.43;100.00;95845.83;648034;212;32186;-73
2022/02/23 00:43:48;;;;;;;0.40;0.40;;;5.10;1.40;;;5.47;100.00;95836.33;645816;216;31485;-74
2022/02/23 00:46:33;;;;;;;1.10;1.00;;;5.20;1.40;;;5.53;100.00;95847.05;647275;212;32040;-74
2022/02/23 00:49:15;;;;;;;0.40;0.20;;;5.30;1.40;;;5.39;100.00;95834.17;646348;212;31622;-74
2022/02/23 00:51:57;;;;;;;1.40;0.30;;;5.20;1.40;;;5.51;100.00;95841.29;646032;212;31525;-74
2022/02/23 00:54:38;;;;;;;0.60;0.40;;;5.30;1.40;;;5.56;100.00;95827.70;646015;216;31496;-74
2022/02/23 00:57:20;;;;;;;1.20;0.77;;;5.30;1.40;;;5.58;100.00;95821.90;646621;216;31532;-74
2022/02/23 01:00:02;;;;;;;0.40;0.30;;;5.40;1.40;;;5.55;100.00;95822.97;645291;216;32330;-75
2022/02/23 01:02:43;;;;;;;0.60;0.55;;;5.40;1.40;;;5.63;100.00;95817.48;646814;216;31612;-74
2022/02/23 01:05:25;;;;;;;0.50;0.50;;;5.40;1.40;;;5.62;100.00;95822.38;646059;212;31570;-75
2022/02/23 01:08:09;;;;;;;0.40;0.20;;;5.40;1.40;;;5.65;100.00;95828.89;619733;226;31985;-79
2022/02/23 01:10:57;;;;;;;0.40;0.30;;;5.40;1.40;;;5.72;100.00;95820.79;646545;216;31518;-75
2022/02/23 01:13:39;;;;;;;0.80;0.50;;;5.50;1.40;;;5.71;100.00;95824.13;645688;216;31546;-76
2022/02/23 01:16:21;;;;;;;0.55;0.43;;;5.50;1.40;;;5.79;100.00;95819.87;646309;216;32067;-75
2022/02/23 01:19:02;;;;;;;0.40;0.30;;;5.50;1.40;;;5.82;100.00;95813.20;647346;212;42172;-76
2022/02/23 01:21:44;;;;;;;0.40;0.30;;;5.50;1.40;;;5.87;100.00;95804.82;646455;216;31516;-76
2022/02/23 01:24:26;;;;;;;0.90;0.35;;;5.60;1.40;;;5.84;100.00;95813.10;618928;222;31827;-75
2022/02/23 01:27:14;;;;;;;2.00;0.70;;;5.50;1.40;;;5.98;100.00;95818.95;647922;212;31493;-79
2022/02/23 01:30:01;;;;;;;1.30;0.60;;;5.70;1.40;;;5.95;100.00;95811.05;646630;216;31807;-77
2022/02/23 01:32:43;;;;;;;0.40;0.40;;;5.70;1.40;;;6.01;100.00;95815.56;646550;216;31507;-76
2022/02/23 01:35:56;;;;;;;0.40;0.30;;;5.70;1.40;;;6.11;100.00;95819.29;647161;216;31824;-75
2022/02/23 01:38:38;;;;;;;2.00;0.40;;;5.80;1.40;;;6.12;100.00;95816.12;619791;225;31838;-76
2022/02/23 01:41:20;;;;;;;1.58;0.50;;;5.70;1.40;;;6.21;100.00;95828.22;618564;226;31989;-77
2022/02/23 01:44:02;;;;;;;1.00;0.50;;;5.90;1.40;;;6.29;100.00;95813.84;619417;222;32203;-75
2022/02/23 01:46:43;;;;;;;0.60;0.37;;;5.90;1.40;;;6.35;100.00;95817.22;646580;216;31525;-75
2022/02/23 01:49:25;;;;;;;1.10;0.70;;;6.00;1.40;;;6.44;100.00;95815.60;646963;216;31536;-74
2022/02/23 01:52:07;;;;;;;0.40;0.20;;;6.10;1.40;;;6.32;100.00;95834.66;646655;212;32089;-74
2022/02/23 01:54:49;;;;;;;0.40;0.30;;;6.00;1.40;;;6.38;100.00;95821.42;647202;216;31469;-75
2022/02/23 01:57:30;;;;;;;1.80;0.40;;;6.00;1.40;;;6.50;100.00;95819.86;646587;216;31507;-76
2022/02/23 02:00:14;;;;;;;0.40;0.30;;;6.10;1.40;;;6.52;100.00;95830.66;646305;216;42154;-76
2022/02/23 02:02:55;;;;;;;0.40;0.30;;;6.10;1.40;;;6.49;100.00;95809.84;645110;216;31840;-75
2022/02/23 02:05:36;;;;;;;0.60;0.60;;;6.10;1.40;;;6.53;100.00;95828.83;620131;226;31982;-75
2022/02/23 02:08:18;;;;;;;0.45;0.35;;;6.10;1.40;;;6.55;100.00;95835.61;634455;215;42306;-75
2022/02/23 02:11:02;;;;;;;0.40;0.30;;;6.10;1.40;;;6.55;100.00;95848.22;648758;216;42294;-79
2022/02/23 02:13:46;;;;;;;0.80;0.70;;;6.10;1.40;;;6.50;100.00;95852.55;646820;212;42292;-77
2022/02/23 02:16:27;;;;;;;0.70;0.40;;;6.10;1.40;;;6.52;100.00;95846.87;620982;222;42638;-75
2022/02/23 02:19:11;;;;;;;0.52;0.52;;;6.10;1.40;;;6.57;100.00;95860.66;647696;212;42126;-79
2022/02/23 02:22:02;;;;;;;0.40;0.25;;;6.20;1.40;;;6.48;100.00;95848.73;646665;216;32732;-75
2022/02/23 02:24:44;;;;;;;0.40;0.20;;;6.10;1.40;;;6.47;100.00;95847.44;647444;216;31505;-75
2022/02/23 02:27:26;;;;;;;0.40;0.20;;;6.10;1.40;;;6.49;100.00;95845.92;646954;212;42105;-76
2022/02/23 02:30:08;;;;;;;0.40;0.20;;;6.10;1.40;;;6.50;100.00;95849.22;647111;216;42117;-75
2022/02/23 02:32:50;;;;;;;0.40;0.20;;;6.10;1.40;;;6.49;100.00;95848.46;645385;216;31482;-75
2022/02/23 02:35:52;;;;;;;1.20;0.30;;;6.10;1.40;;;6.52;100.00;95850.27;646347;216;31490;-75
2022/02/23 02:38:33;;;;;;;0.60;0.60;;;6.10;1.40;;;6.50;100.00;95848.46;647455;216;31734;-76
2022/02/23 02:41:15;;;;;;;0.40;0.20;;;6.10;1.40;;;6.51;100.00;95866.32;646737;216;37140;-76
2022/02/23 02:43:59;;;;;;;0.40;0.40;;;6.10;1.40;;;6.58;100.00;95851.34;647752;216;31567;-80
2022/02/23 02:46:47;;;;;;;0.70;0.40;;;6.10;1.40;;;6.49;100.00;95872.16;646555;216;42114;-75
2022/02/23 02:49:29;;;;;;;0.60;0.40;;;6.10;1.40;;;6.51;100.00;95871.48;645089;216;31477;-75
2022/02/23 02:52:11;;;;;;;0.40;0.20;;;6.10;1.40;;;6.51;100.00;95867.18;647076;216;31527;-75
2022/02/23 02:54:53;;;;;;;0.90;0.40;;;6.00;1.40;;;6.34;100.00;95864.82;647055;216;31485;-76
2022/02/23 02:57:39;;;;;;;0.80;0.40;;;6.00;1.40;;;6.34;100.00;95869.98;647267;216;42102;-78
2022/02/23 03:00:19;;;;;;;0.40;0.30;;;6.00;1.40;;;6.33;100.00;95873.22;647309;212;42138;-76
2022/02/23 03:03:01;;;;;;;0.40;0.22;;;5.90;1.40;;;6.10;100.00;95893.63;646419;212;31523;-74
2022/02/23 03:05:43;;;;;;;2.90;0.90;;;5.80;1.40;;;6.04;100.00;95872.57;618992;225;32069;-74
2022/02/23 03:08:24;;;;;;;0.70;0.40;;;5.70;1.40;;;5.97;100.00;95867.65;635259;216;31698;-75
2022/02/23 03:11:08;;;;;;;0.80;0.60;;;5.70;1.40;;;5.95;100.00;95879.97;619246;226;33245;-75
2022/02/23 03:13:50;;;;;;;0.40;0.30;;;5.70;1.40;;;5.97;100.00;95886.22;646619;212;31497;-75
2022/02/23 03:16:35;;;;;;;0.40;0.30;;;5.70;1.40;;;5.91;100.00;95882.84;647003;216;42951;-75
2022/02/23 03:19:16;;;;;;;0.80;0.40;;;5.60;1.40;;;6.01;100.00;95892.80;619454;226;32120;-76
2022/02/23 03:22:01;;;;;;;0.50;0.30;;;5.80;1.40;;;6.05;100.00;95890.33;647168;216;31511;-79
2022/02/23 03:24:45;;;;;;;0.40;0.28;;;5.80;1.40;;;6.02;100.00;95893.93;647761;216;42133;-75
2022/02/23 03:27:28;;;;;;;0.40;0.20;;;5.80;1.40;;;6.07;100.00;95897.17;647442;212;31518;-80
2022/02/23 03:30:11;;;;;;;1.50;0.50;;;5.80;1.40;;;6.02;100.00;95887.91;647176;216;31525;-80
2022/02/23 03:33:01;;;;;;;1.50;0.32;;;5.80;1.40;;;6.09;100.00;95909.08;646082;216;31543;-76
2022/02/23 03:35:52;;;;;;;0.70;0.40;;;5.90;1.40;;;6.13;100.00;95907.63;618491;226;31872;-75
2022/02/23 03:38:40;;;;;;;0.40;0.20;;;5.80;1.40;;;6.02;100.00;95917.56;619496;222;32421;-80
2022/02/23 03:41:27;;;;;;;0.40;0.40;;;5.80;1.40;;;6.06;100.00;95917.03;646396;216;32474;-75
2022/02/23 03:44:15;;;;;;;0.40;0.20;;;5.80;1.40;;;6.07;100.00;95928.61;648224;212;31518;-80
2022/02/23 03:47:03;;;;;;;0.40;0.20;;;5.80;1.40;;;6.15;100.00;95922.74;646234;212;31517;-75
2022/02/23 03:49:45;;;;;;;0.70;0.40;;;5.90;1.40;;;6.24;100.00;95947.80;646333;216;31477;-75
2022/02/23 03:52:27;;;;;;;2.10;0.80;;;6.00;1.40;;;6.22;100.00;95961.09;645209;216;32147;-74
2022/02/23 03:55:09;;;;;;;0.70;0.40;;;5.90;1.40;;;6.13;100.00;96022.30;646348;216;31497;-74
2022/02/23 03:57:53;;;;;;;0.40;0.30;;;5.70;1.40;;;4.94;100.00;96085.54;647039;216;31525;-72
2022/02/23 04:00:35;;;;;;;0.70;0.30;;;4.00;1.40;;;3.52;100.00;96074.64;646642;216;32063;-72
2022/02/23 04:03:17;;;;;;;0.77;0.65;;;2.90;1.40;;;3.30;100.00;96074.90;619255;222;31915;-72
2022/02/23 04:05:58;;;;;;;1.50;0.60;;;2.70;1.40;;;3.26;100.00;96087.86;619083;226;31849;-72
2022/02/23 04:08:40;;;;;;;0.50;0.30;;;2.70;1.40;;;3.20;100.00;96091.77;646544;216;31527;-75
2022/02/23 04:11:21;;;;;;;;;;;2.70;1.40;;;3.24;100.00;96103.41;652989;216;25190;-73
2022/02/23 04:14:06;;;;;;;;;;;2.70;1.40;;;3.21;100.00;96112.70;652751;216;25261;-73
2022/02/23 04:16:52;;;;;;;;;;;2.70;1.40;;;3.21;100.00;96111.14;606847;233;24965;-72
2022/02/23 04:19:33;;;;;;;;;;;2.70;1.40;;;3.13;100.00;96119.70;638345;221;24893;-75
2022/02/23 04:22:15;;;;;;;;;;;2.70;1.40;;;3.06;100.00;96122.79;651881;216;24825;-73
2022/02/23 04:24:56;;;;;;;;;;;2.60;1.40;;;3.05;100.00;96128.50;654000;216;24875;-72
2022/02/23 04:27:37;;;;;;;;;;;2.60;1.40;;;3.09;100.00;96132.11;653529;212;25490;-73
2022/02/23 04:30:22;;;;;;;;;;;2.60;1.40;;;3.02;100.00;96139.91;653501;216;24818;-75
2022/02/23 04:35:51;;;;;;;0.60;0.60;;;2.50;1.40;;;2.96;100.00;96143.42;646727;213;31501;-72
2022/02/23 04:38:32;;;;;;;0.40;0.20;;;2.50;1.40;;;2.99;100.00;96144.47;645697;216;31522;-73
2022/02/23 04:41:14;;;;;;;0.40;0.20;;;2.50;1.40;;;2.97;100.00;96146.97;618373;226;32468;-72
2022/02/23 04:43:56;;;;;;;0.40;0.22;;;2.50;1.40;;;2.94;100.00;96147.18;646890;216;31616;-73
2022/02/23 04:46:38;;;;;;;0.40;0.20;;;2.50;1.40;;;2.95;100.00;96148.38;647115;216;31495;-72
2022/02/23 04:49:19;;;;;;;0.50;0.50;;;2.50;1.40;;;2.96;100.00;96149.15;646528;215;31704;-73
2022/02/23 04:52:01;;;;;;;0.40;0.20;;;2.50;1.40;;;3.02;100.00;96146.41;645709;216;31517;-73
2022/02/23 04:54:43;;;;;;;0.70;0.60;;;2.60;1.40;;;2.96;100.00;96141.34;647456;214;31508;-72
2022/02/23 04:57:24;;;;;;;0.40;0.20;;;2.60;1.40;;;2.98;100.00;96146.64;646342;212;31547;-75
2022/02/23 05:00:07;;;;;;;0.40;0.40;;;2.50;1.40;;;2.99;100.00;96146.88;647544;216;31510;-73
2022/02/23 05:02:49;;;;;;;0.40;0.20;;;2.50;1.40;;;3.00;100.00;96159.43;646708;216;31486;-72
2022/02/23 05:05:31;;;;;;;0.40;0.20;;;2.50;1.40;;;2.93;100.00;96156.27;646290;212;31505;-73
2022/02/23 05:10:47;;;;;;;0.40;0.20;;;2.50;1.40;;;2.91;100.00;96159.27;648591;216;32601;-72
2022/02/23 05:13:31;;;;;;;0.70;0.52;;;2.50;1.40;;;2.91;100.00;96168.59;647124;216;42169;-73
2022/02/23 05:16:13;;;;;;;0.40;0.20;;;2.50;1.40;;;2.87;100.00;96177.03;647314;212;32183;-75
2022/02/23 05:18:55;;;;;;;0.43;0.22;;;2.50;1.40;;;2.92;100.00;96183.98;646218;212;31628;-74
2022/02/23 05:21:37;;;;;;;0.90;0.30;;;2.50;1.40;;;2.91;100.00;96193.50;647281;216;31471;-73
2022/02/23 05:24:22;;;;;;;0.40;0.20;;;2.50;1.40;;;2.82;100.00;96191.56;645115;216;31519;-73
2022/02/23 05:27:03;;;;;;;0.40;0.20;;;2.50;1.40;;;2.82;100.00;96196.28;648351;216;31597;-72
2022/02/23 05:29:45;;;;;;;0.40;0.20;;;2.50;1.40;;;2.89;100.00;96195.81;631189;217;31636;-72
2022/02/23 05:32:27;;;;;;;0.40;0.20;;;2.50;1.40;;;2.89;100.00;96201.23;645913;216;32019;-73
2022/02/23 05:35:54;;;;;;;0.40;0.20;;;2.60;1.40;;;2.93;100.00;96206.67;646439;215;31573;-74
2022/02/23 05:38:36;;;;;;;0.40;0.20;;;2.60;1.40;;;2.90;100.00;96210.73;618777;222;31864;-74
2022/02/23 05:41:18;;;;;;;0.40;0.20;;;2.50;1.40;;;2.88;100.00;96204.16;618618;225;31841;-72
2022/02/23 05:44:01;;;;;;;0.40;0.20;;;2.50;1.40;;;2.91;100.00;96213.43;645079;216;31578;-73
2022/02/23 05:46:41;;;;;;;1.10;0.90;;;2.60;1.40;;;2.92;100.00;96219.39;646659;212;31579;-73
2022/02/23 05:49:23;;;;;;;0.40;0.20;;;2.60;1.40;;;2.92;100.00;96234.59;618800;226;31888;-76
2022/02/23 05:52:05;;;;;;;0.40;0.20;;;2.60;1.40;;;2.89;100.00;96238.51;647456;216;31501;-74
2022/02/23 05:54:47;;;;;;;;;;;2.60;1.40;;;2.92;100.00;96237.59;651953;212;24837;-73
2022/02/23 05:57:31;;;;;;;;;;;2.70;1.40;;;2.94;100.00;96238.70;653436;212;24767;-74
2022/02/23 06:00:13;;;;;;;;;;;2.70;1.40;;;3.00;100.00;96246.37;653490;216;25254;-73
2022/02/23 06:02:54;;;;;;;;;;;2.80;1.40;;;3.03;100.00;96257.58;652827;212;24803;-73
2022/02/23 06:05:35;;;;;;;;;;;2.80;1.40;;;3.06;100.00;96257.45;653175;212;24838;-76
2022/02/23 06:08:17;;;;;;;;;;;2.80;1.40;;;3.01;100.00;96256.14;642112;216;25041;-74
2022/02/23 06:10:58;;;;;;;;;;;2.70;1.40;;;2.97;100.00;96264.97;652109;212;24818;-76
2022/02/23 06:13:39;;;;;;;;;;;2.80;1.40;;;3.02;100.00;96274.52;653670;216;24913;-76
2022/02/23 06:16:24;;;;;;;;;;;2.80;1.40;;;3.06;100.00;96281.95;653637;216;24823;-76
2022/02/23 06:19:05;;;;;;;;;;;2.80;1.40;;;3.02;100.00;96277.59;653843;216;24802;-73
2022/02/23 06:21:46;;;;;;;;;;;2.80;1.40;;;3.06;100.00;96280.98;653194;212;24974;-76
2022/02/23 06:24:28;;;;;;;;;;;2.90;1.40;;;3.08;100.00;96288.58;653490;216;24816;-76
2022/02/23 06:27:10;;;;;;;;;;;2.80;1.40;;;3.05;100.00;96290.23;653070;216;25183;-75
2022/02/23 06:29:50;;;;;;;;;;;2.80;1.40;;;3.03;100.00;96301.28;653068;216;24829;-74
2022/02/23 06:32:32;;;;;;;;;;;2.80;1.40;;;3.02;100.00;96301.09;653044;212;24837;-75
2022/02/23 06:35:51;;;;;;;;;;;2.70;1.40;;;2.95;100.00;96299.85;653831;212;24841;-74
2022/02/23 06:38:36;;;;;;;;;;;2.70;1.40;;;2.98;100.00;96307.12;652896;212;24832;-74
2022/02/23 06:41:17;;;;;;;;;;;2.70;1.40;;;2.98;100.00;96301.38;652525;212;24865;-73
2022/02/23 06:44:01;;;;;;;;;;;2.70;1.40;;;2.97;100.00;96307.33;653072;212;25367;-75
2022/02/23 06:46:43;;;;;;;;;;;2.60;1.40;;;2.94;100.00;96311.70;654162;216;24722;-77
2022/02/23 06:49:25;;;;;;;;;;;2.50;1.40;;;2.83;100.00;96315.55;653557;212;24722;-74
2022/02/23 06:52:06;;;;;;;;;;;2.50;1.40;;;2.69;100.00;96322.55;653479;216;24847;-74
2022/02/23 06:54:50;;;;;;;;;;;2.40;1.40;;;2.60;100.00;96329.80;652638;212;24823;-74
2022/02/23 06:57:36;;;;;;;;;;;2.30;1.40;;;2.54;100.00;96337.20;651929;216;25162;-73
2022/02/23 07:00:18;;;;;;;;;;;2.20;1.40;;;2.50;100.00;96333.36;653506;216;24960;-74
2022/02/23 07:02:59;;;;;;;;;;;2.20;1.40;;;2.42;100.00;96337.72;652657;216;24807;-76
2022/02/23 07:05:40;;;;;;;;;;;2.10;1.40;;;2.54;100.00;96342.88;653254;212;24853;-75
2022/02/23 07:08:25;;;;;;;;;;;2.30;1.40;;;2.63;100.00;96343.01;630038;220;24861;-74
2022/02/23 07:11:06;;;;;;;;;;;2.40;1.40;;;2.77;100.00;96337.44;652300;212;24814;-76
2022/02/23 07:13:50;;;;;;;;;;;2.50;1.40;;;2.94;100.00;96342.08;652794;216;24921;-75
2022/02/23 07:16:32;;;;;;;;;;;2.70;1.40;;;3.08;100.00;96346.38;653456;216;25362;-74
2022/02/23 07:19:16;;;;;;;;;;;2.80;1.40;;;3.20;100.00;96340.13;652256;212;24885;-76
2022/02/23 07:22:00;;;;;;;;;;;2.90;1.40;;;3.28;100.00;96353.42;653662;216;24811;-75
2022/02/23 07:24:42;;;;;;;;;;;3.00;1.40;;;3.44;100.00;96356.89;621656;224;25162;-74
2022/02/23 07:27:26;;;;;;;;;;;3.10;1.40;;;3.46;100.00;96360.14;651695;216;24826;-73
2022/02/23 07:30:07;;;;;;;;;;;3.20;1.40;;;3.58;100.00;96360.67;654168;216;24808;-74
2022/02/23 07:32:49;;;;;;;;;;;3.20;1.40;;;3.66;100.00;96354.51;654447;212;24808;-74
2022/02/23 07:35:51;;;;;;;1.15;0.60;;;3.30;1.40;;;3.79;100.00;96361.50;646926;212;31511;-74
2022/02/23 07:38:32;;;;;;;0.40;0.40;;;3.50;1.40;;;3.87;100.00;96367.70;646873;216;31634;-73
2022/02/23 07:41:21;;;;;;;0.40;0.30;;;3.60;1.40;;;3.94;100.00;96378.28;647142;216;31501;-76
2022/02/23 07:43:59;;;;;;;0.40;0.30;;;3.70;1.40;;;4.13;100.00;96383.27;646569;212;31549;-73
2022/02/23 07:46:41;;;;;;;0.50;0.40;;;3.80;1.40;;;4.25;100.00;96386.55;646495;216;31883;-74
2022/02/23 07:51:57;;;;;;;0.40;0.20;;;4.00;1.40;;;4.28;100.00;96393.29;646757;212;31506;-77
2022/02/23 07:54:38;;;;;;;0.50;0.50;;;4.00;1.40;;;4.28;100.00;96390.66;642097;215;31474;-74
2022/02/23 07:57:20;;;;;;;0.50;0.30;;;4.00;1.40;;;4.43;100.00;96391.61;646093;216;31617;-76
2022/02/23 08:00:02;;;;;;;0.40;0.20;;;4.10;1.40;;;4.46;100.00;96397.93;646386;216;31559;-76
2022/02/23 08:02:43;;;;;;;0.40;0.30;;;4.20;1.40;;;4.69;100.00;96398.98;646096;216;31517;-74
2022/02/23 08:05:25;;;;;;;0.40;0.30;;;4.40;1.40;;;4.84;100.00;96402.79;645065;216;31589;-74
2022/02/23 08:08:07;;;;;;;0.70;0.70;;;4.50;1.40;;;4.95;100.00;96409.47;637483;212;32584;-76
2022/02/23 08:10:52;;;;;;;0.50;0.40;;;4.70;1.40;;;4.93;100.00;96411.86;646601;212;32095;-75
2022/02/23 08:13:33;;;;;;;0.40;0.20;;;4.70;1.40;;;5.11;100.00;96421.08;646270;216;31513;-75
2022/02/23 08:21:37;;;;;;;1.70;0.85;;;5.00;1.40;;;5.46;100.00;96429.66;645847;216;32057;-74
2022/02/23 08:26:52;;;;;;;0.40;0.20;;;5.20;1.40;;;5.59;100.00;96431.04;646406;216;42876;-75
2022/02/23 08:29:34;;;;;;;0.40;0.40;;;5.30;1.40;;;5.57;100.00;96438.25;647911;216;42197;-74
2022/02/23 08:32:16;;;;;;;4.60;0.47;;;5.30;1.40;;;5.72;100.00;96443.11;618138;222;31845;-74
2022/02/23 08:35:51;;;;;;;0.90;0.30;;;5.40;1.40;;;5.75;100.00;96439.54;646587;216;31671;-74
2022/02/23 08:38:34;;;;;;;1.00;0.30;;;5.50;1.40;;;6.09;100.00;96439.28;645928;212;31538;-74
2022/02/23 08:41:19;;;;;;;0.40;0.30;;;5.80;1.40;;;6.06;100.00;96452.77;647221;216;42690;-74
2022/02/23 08:44:00;;;;;;;0.77;0.40;;;5.70;1.40;;;6.14;100.00;96453.42;646606;216;31522;-74
2022/02/23 08:46:42;;;;;;;0.40;0.30;;;5.80;1.40;;;6.34;100.00;96446.13;646802;216;42440;-74
2022/02/23 08:49:26;;;;;;;0.40;0.20;;;6.00;1.40;;;6.35;100.00;96446.95;646731;212;32112;-74
2022/02/23 08:52:08;;;;;;;0.40;0.30;;;6.00;1.40;;;6.41;100.00;96447.17;647460;216;31510;-74
2022/02/23 08:54:52;;;;;;;1.60;0.30;;;6.10;1.40;;;6.39;100.00;96456.42;645958;216;32164;-74
2022/02/23 08:57:34;;;;;;;0.60;0.60;;;6.00;1.40;;;6.31;100.00;96463.31;647315;216;31664;-74
2022/02/23 09:00:16;;;;;;;0.90;0.60;;;6.00;1.40;;;6.36;100.00;96465.22;647108;216;31485;-74
2022/02/23 09:05:33;;;;;;;0.40;0.40;;;6.40;1.40;;;6.90;100.00;96466.28;646321;212;31462;-74
2022/02/23 09:08:14;;;;;;;2.00;0.50;;;6.60;1.40;;;7.03;100.00;96465.03;636363;216;31627;-76
2022/02/23 09:10:55;;;;;;;1.43;0.40;;;6.70;1.40;;;7.24;100.00;96466.31;646364;212;32116;-74
2022/02/23 09:13:37;;;;;;;0.40;0.30;;;7.00;1.40;;;8.02;100.00;96470.06;646431;212;31516;-75
2022/02/23 09:16:19;;;;;;;0.90;0.30;;;8.20;1.40;;;8.68;100.00;96467.31;619659;222;31829;-75
2022/02/23 09:19:01;;;;;;;0.60;0.30;;;8.40;1.40;;;8.50;100.00;96469.25;618781;226;31881;-76
2022/02/23 09:21:42;;;;;;;0.50;0.22;;;8.00;1.40;;;9.24;100.00;96465.73;647062;216;31600;-75
2022/02/23 09:24:24;;;;;;;0.62;0.35;;;8.70;1.40;;;9.50;100.00;96473.78;646183;216;31516;-75
2022/02/23 09:27:06;;;;;;;0.70;0.30;;;8.80;1.40;;;9.67;100.00;96473.13;619765;225;32184;-75
2022/02/23 09:29:48;;;;;;;0.40;0.20;;;9.00;1.40;;;9.82;100.00;96473.53;646801;216;31601;-74
2022/02/23 09:32:29;;;;;;;1.00;0.60;;;9.10;1.40;;;9.58;100.00;96473.66;647601;216;31510;-75
2022/02/23 09:35:52;;;;;;;0.80;0.40;;;8.90;1.40;;;9.61;100.00;96475.11;646455;216;31773;-75
2022/02/23 09:38:33;;;;;;;0.40;0.20;;;8.30;1.40;;;10.41;100.00;96477.86;646906;216;32336;-75
2022/02/23 09:41:17;;;;;;;0.80;0.30;;;9.40;1.40;;;11.15;100.00;96476.70;646803;216;34358;-75
2022/02/23 09:44:00;;;;;;;0.60;0.50;;;10.50;1.40;;;11.63;97.82;96475.41;646871;216;31524;-75
2022/02/23 09:46:42;;;;;;;0.50;0.43;;;10.40;1.40;;;11.58;85.99;96477.41;645732;212;31498;-75
2022/02/23 09:49:25;;;;;;;0.70;0.70;;;10.30;1.40;;;11.31;96.71;96477.58;645946;216;31510;-74
2022/02/23 09:52:08;;;;;;;0.60;0.40;;;10.10;1.40;;;10.94;97.39;96476.59;646956;212;31476;-76
2022/02/23 09:54:48;;;;;;;0.88;0.40;;;9.30;1.40;;;11.67;97.32;96471.19;646820;212;32083;-76
2022/02/23 09:57:29;;;;;;;1.50;0.60;;;9.40;1.40;;;10.47;98.11;96478.05;646525;212;31623;-76
2022/02/23 10:00:11;;;;;;;1.80;0.40;;;8.30;1.40;;;10.09;94.33;96478.83;618664;225;31873;-75
2022/02/23 10:02:54;;;;;;;1.33;0.40;;;8.80;1.40;;;11.61;92.43;96472.00;620142;226;31809;-75
2022/02/23 10:05:38;;;;;;;0.93;0.50;;;10.00;1.40;;;11.47;89.09;96462.16;646217;212;31550;-79
2022/02/23 10:08:32;;;;;;;1.30;0.50;;;9.50;1.40;;;12.02;85.18;96469.01;647501;216;31552;-76
2022/02/23 10:11:18;;;;;;;1.00;0.70;;;10.30;1.40;;;11.69;84.65;96472.25;647654;216;31483;-76
2022/02/23 10:14:02;;;;;;;0.55;0.30;;;9.80;1.40;;;10.85;87.37;96470.25;647197;216;31516;-75
2022/02/23 10:16:41;;;;;;;1.25;0.55;;;8.50;1.40;;;10.95;89.29;96469.43;646165;216;32028;-75
2022/02/23 10:19:30;;;;;;;2.97;0.70;;;8.20;1.40;;;10.52;94.61;96472.34;648601;212;31532;-77
2022/02/23 10:22:23;;;;;;;2.83;0.50;;;7.90;1.40;;;10.02;94.08;96474.86;646885;216;42761;-77
2022/02/23 10:25:06;;;;;;;1.40;0.53;;;7.70;1.40;;;9.72;94.55;96473.18;646621;216;31546;-77
2022/02/23 10:27:50;;;;;;;0.90;0.43;;;7.70;1.40;;;10.36;100.00;96475.09;646780;213;32118;-76
2022/02/23 10:30:32;;;;;;;1.60;0.60;;;8.00;1.40;;;9.86;97.28;96475.56;645761;216;31503;-75
2022/02/23 10:35:58;;;;;;;1.42;0.50;;;7.80;1.40;;;9.47;100.00;96473.64;647217;216;31517;-79
2022/02/23 10:38:46;;;;;;;1.60;0.40;;;7.70;1.40;;;9.68;100.00;96472.97;619287;225;33670;-76
2022/02/23 10:41:36;;;;;;;1.10;0.50;;;7.80;1.40;;;10.16;100.00;96477.29;619562;226;31830;-79
2022/02/23 10:44:17;;;;;;;1.70;0.40;;;8.10;1.40;;;10.07;100.00;96474.45;647578;216;31519;-75
2022/02/23 10:47:00;;;;;;;0.50;0.50;;;8.20;1.40;;;10.47;100.00;96469.92;645665;216;37876;-75
2022/02/23 10:50:16;;;;;;;2.70;0.70;;;8.30;1.40;;;10.27;100.00;96468.52;646862;216;31492;-79
2022/02/23 10:53:04;;;;;;;1.00;0.60;;;8.10;1.40;;;9.97;100.00;96472.28;646174;212;32488;-76
2022/02/23 10:55:45;;;;;;;0.90;0.30;;;8.20;1.40;;;10.66;100.00;96472.89;646458;212;31536;-77
2022/02/23 10:58:28;;;;;;;1.00;0.30;;;8.90;1.40;;;11.43;98.99;96465.56;619516;222;32285;-76
2022/02/23 11:01:09;;;;;;;3.30;0.40;;;10.10;1.40;;;12.94;88.78;96456.93;618993;226;31988;-76
2022/02/23 11:03:53;;;;;;;0.70;0.40;;;10.30;1.40;;;13.04;91.12;96461.88;646286;216;31461;-80
2022/02/23 11:06:41;;;;;;;1.00;0.50;;;10.90;1.40;;;16.37;78.08;96452.20;644536;212;38342;-76
2022/02/23 11:09:22;;;;;;;0.50;0.40;;;15.40;1.40;;;18.54;61.48;96445.70;646261;216;31523;-75
2022/02/23 11:12:10;;;;;;;1.15;0.52;;;15.80;1.40;;;20.60;59.92;96434.53;648154;216;31606;-78
2022/02/23 11:14:52;;;;;;;3.20;0.50;;;17.80;1.40;;;20.85;51.12;96436.57;647352;216;31573;-78
2022/02/23 11:17:34;;;;;;;1.10;0.70;;;18.10;1.40;;;23.12;44.41;96429.75;647949;216;31488;-78
2022/02/23 11:20:26;;;;;;;1.35;0.60;;;18.20;1.40;;;24.86;45.24;96420.98;618417;226;32700;-76
2022/02/23 11:23:17;;;;;;;1.00;0.70;;;19.30;1.40;;;24.68;46.50;96426.17;619722;226;32533;-77
2022/02/23 11:26:00;;;;;;;0.70;0.50;;;19.60;1.40;;;27.59;43.10;96426.02;646950;216;31569;-75
2022/02/23 11:28:47;;;;;;;1.30;0.50;;;20.60;1.40;;;26.84;47.17;96423.13;618887;226;31876;-76
2022/02/23 11:31:28;;;;;;;1.30;0.50;;;20.20;1.40;;;28.29;42.68;96415.45;646802;212;31802;-76
2022/02/23 11:35:53;;;;;;;1.70;0.50;;;20.70;1.40;;;26.74;39.46;96410.62;646690;212;31551;-78
2022/02/23 11:38:37;;;;;;;1.02;0.60;;;20.50;1.40;;;26.47;39.12;96410.30;619287;226;32108;-74
2022/02/23 11:43:57;;;;;;;1.87;0.90;;;19.50;1.40;;;27.39;35.24;96405.41;647108;216;31764;-75
2022/02/23 11:46:58;;;;;;;1.30;0.70;;;19.30;1.40;;;26.11;38.44;96402.97;646314;216;31475;-74
2022/02/23 11:49:50;;;;;;;1.25;0.70;;;19.80;1.40;;;27.48;32.79;96395.78;645933;216;31466;-76
2022/02/23 11:52:33;;;;;;;2.00;0.80;;;19.70;1.40;;;26.01;40.03;96391.31;620168;225;31935;-76
2022/02/23 11:55:20;;;;;;;3.00;0.90;;;18.70;1.40;;;27.52;35.66;96385.92;645771;216;31782;-76
2022/02/23 11:58:01;;;;;;;3.00;0.60;;;20.10;1.40;;;26.37;37.54;96380.45;619292;222;31931;-76
2022/02/23 12:00:58;;;;;;;2.63;0.60;;;19.20;1.40;;;27.22;32.53;96384.88;647667;212;31626;-74
2022/02/23 12:03:42;;;;;;;0.80;0.40;;;18.10;1.40;;;18.77;39.68;96396.87;646164;216;31504;-76
2022/02/23 12:06:21;;;;;;;2.22;0.60;;;14.80;1.40;;;17.35;43.72;96389.95;618503;222;31866;-76
2022/02/23 12:09:03;;;;;;;1.25;0.40;;;13.60;1.40;;;18.34;43.94;96388.81;615836;226;32043;-75
2022/02/23 12:11:50;;;;;;;1.30;0.52;;;16.00;1.40;;;22.71;36.78;96368.80;647341;216;31573;-76
2022/02/23 12:14:53;;;;;;;2.70;0.70;;;18.60;1.40;;;22.64;35.53;96366.17;648178;216;31578;-78
2022/02/23 12:17:47;;;;;;;1.70;0.70;;;16.40;1.40;;;19.55;40.14;96360.35;619268;226;32312;-75
2022/02/23 12:20:51;;;;;;;1.10;0.50;;;16.50;1.40;;;19.99;39.54;96355.31;618718;226;32039;-78
2022/02/23 12:23:38;;;;;;;2.30;0.80;;;17.10;1.40;;;22.31;36.67;96348.03;647537;212;31576;-75
2022/02/23 12:26:23;;;;;;;0.95;0.50;;;18.30;1.40;;;23.09;33.70;96337.13;645908;216;32249;-76